Pine Hills, Florida
Current Conditions -  °F | °C
As of 11:53 AM on Friday 24 Oct 2014 (Local Time) from KORL Reporting Station
Scattered Clouds Scattered Clouds  
Wind Chill: 24°   Ceiling: Unl
Heat Index: 24°   Visibility: 10mi
Dew Point: 16°   Wind: 6mph
Humidity: 60%   Direction: 80°E
Pressure: 29.99"   Gusts: NA
Location:  28.55°N, 81.45°W
Report Text: KORL 241553Z 08005KT 10SM SCT040 24/16 A2999 RMK AO2 SLP160 T02440161
Loading
Personal Weather Stations






























Interactive Weather Map
Tropical Storm Tracking
New forecast layout! Learn more

10-Day Weather Forecast

Advertisements
Track Severe Weather on mobile